Time;durP1;ratioP1;P1;durP2;ratioP2;P2;SDS_P1;SDS_P2;PMS_P1;PMS_P2;Temp;Humidity;BMP_temperature;BMP_pressure;BME280_temperature;BME280_humidity;BME280_pressure;Samples;Min_cycle;Max_cycle;Signal;HPM_P1;HPM_P2
2023/06/08 00:00:05;;;;;;;;;;;;;;;14.99;69.12;100240.55;133838;1304;22470;-76
2023/06/08 00:03:12;;;;;;;;;;;;;;;14.98;69.32;100240.98;133848;1302;22447;-77
2023/06/08 00:06:13;;;;;;;;;;;;;;;14.98;69.41;100237.29;133823;1300;22899;-76
2023/06/08 00:09:16;;;;;;;;;;;;;;;14.96;69.56;100236.86;133831;1301;22432;-76
2023/06/08 00:12:19;;;;;;;;;;;;;;;14.93;69.64;100235.77;133856;1300;22544;-76
2023/06/08 00:15:20;;;;;;;;;;;;;;;14.89;69.64;100238.92;133891;1299;22555;-76
2023/06/08 00:18:21;;;;;;;;;;;;;;;14.86;69.89;100240.27;133837;1304;22477;-76
2023/06/08 00:21:26;;;;;;;;;;;;;;;14.78;69.78;100241.38;133874;1302;22471;-75
2023/06/08 00:24:29;;;;;;;;;;;;;;;14.68;70.12;100236.96;133835;1307;22485;-76
2023/06/08 00:27:33;;;;;;;;;;;;;;;14.62;70.44;100232.80;133914;1300;22459;-76
2023/06/08 00:30:36;;;;;;;;;;;;;;;14.56;70.70;100234.98;133855;1301;22434;-76
2023/06/08 00:33:41;;;;;;;;;;;;;;;14.51;70.90;100240.56;133933;1301;22464;-76
2023/06/08 00:36:43;;;;;;;;;;;;;;;14.44;70.94;100243.02;133888;1300;22507;-78
2023/06/08 00:39:52;;;;;;;;;;;;;;;14.32;71.04;100239.02;133729;1301;22422;-76
2023/06/08 00:42:57;;;;;;;;;;;;;;;14.25;71.08;100237.67;133872;1301;22445;-76
2023/06/08 00:45:58;;;;;;;;;;;;;;;14.18;71.44;100236.27;133916;1301;22454;-76
2023/06/08 00:49:00;;;;;;;;;;;;;;;14.15;71.46;100236.60;133867;1300;22437;-77
2023/06/08 00:52:01;;;;;;;;;;;;;;;14.09;71.87;100232.76;133762;1305;22428;-75
2023/06/08 00:55:06;;;;;;;;;;;;;;;14.04;72.07;100236.96;133869;1301;23101;-77
2023/06/08 00:58:13;;;;;;;;;;;;;;;13.93;72.34;100235.73;133731;1299;22521;-75
2023/06/08 01:01:19;;;;;;;;;;;;;;;13.81;72.57;100238.08;133770;1301;22439;-76
2023/06/08 01:04:22;;;;;;;;;;;;;;;13.64;72.66;100235.83;133878;1303;22606;-75
2023/06/08 01:07:32;;;;;;;;;;;;;;;13.58;72.98;100237.46;133903;1300;22541;-76
2023/06/08 01:10:44;;;;;;;;;;;;;;;13.51;73.32;100238.30;133893;1300;22500;-75
2023/06/08 01:14:05;;;;;;;;;;;;;;;13.47;73.37;100237.23;133829;1300;22479;-76
2023/06/08 01:17:09;;;;;;;;;;;;;;;13.45;73.35;100238.14;133846;1301;22454;-75
2023/06/08 01:20:14;;;;;;;;;;;;;;;13.45;73.54;100239.58;133731;1299;22438;-76
2023/06/08 01:23:25;;;;;;;;;;;;;;;13.47;73.49;100243.09;133842;1301;23239;-76
2023/06/08 01:26:31;;;;;;;;;;;;;;;13.48;73.36;100244.24;133722;1301;22495;-75
2023/06/08 01:29:35;;;;;;;;;;;;;;;13.44;73.27;100244.44;133745;1299;22446;-75
2023/06/08 01:32:38;;;;;;;;;;;;;;;13.44;73.60;100240.71;133717;1299;22493;-77
2023/06/08 01:35:41;;;;;;;;;;;;;;;13.45;73.86;100235.77;133867;1299;22473;-76
2023/06/08 01:38:53;;;;;;;;;;;;;;;13.46;73.98;100236.23;133950;1299;22473;-75
2023/06/08 01:41:58;;;;;;;;;;;;;;;13.47;73.71;100235.50;133887;1302;23128;-75
2023/06/08 01:45:05;;;;;;;;;;;;;;;13.46;73.75;100237.48;133915;1301;22452;-75
2023/06/08 01:48:12;;;;;;;;;;;;;;;13.45;73.97;100238.09;133879;1297;22484;-76
2023/06/08 01:51:15;;;;;;;;;;;;;;;13.43;73.89;100235.61;133891;1299;23072;-76
2023/06/08 01:54:16;;;;;;;;;;;;;;;13.39;73.74;100234.33;133910;1300;22518;-75
2023/06/08 01:57:16;;;;;;;;;;;;;;;13.37;73.76;100235.55;133884;1300;22445;-76
2023/06/08 02:00:24;;;;;;;;;;;;;;;13.33;73.30;100240.92;133736;1300;22447;-76
2023/06/08 02:03:25;;;;;;;;;;;;;;;13.31;73.40;100238.95;133931;1300;22470;-75
2023/06/08 02:06:25;;;;;;;;;;;;;;;13.28;73.52;100240.30;133940;1299;22453;-76
2023/06/08 02:09:28;;;;;;;;;;;;;;;13.27;73.53;100243.71;133841;1299;22445;-75
2023/06/08 02:12:32;;;;;;;;;;;;;;;13.23;73.41;100246.05;133810;1301;22410;-76
2023/06/08 02:15:32;;;;;;;;;;;;;;;13.17;73.30;100245.80;133895;1301;22444;-75
2023/06/08 02:18:35;;;;;;;;;;;;;;;13.14;73.26;100246.19;133885;1300;22449;-76
2023/06/08 02:21:37;;;;;;;;;;;;;;;13.07;73.69;100242.48;133895;1299;23204;-75
2023/06/08 02:24:38;;;;;;;;;;;;;;;12.94;74.09;100244.27;133895;1300;22506;-74
2023/06/08 02:27:43;;;;;;;;;;;;;;;12.84;74.54;100240.95;133893;1299;22510;-78
2023/06/08 02:30:46;;;;;;;;;;;;;;;12.83;74.75;100240.27;133935;1299;22451;-76
2023/06/08 02:33:50;;;;;;;;;;;;;;;12.80;74.78;100239.55;133850;1300;22461;-76
2023/06/08 02:36:53;;;;;;;;;;;;;;;12.76;74.97;100242.24;133868;1300;22470;-76
2023/06/08 02:39:58;;;;;;;;;;;;;;;12.72;74.95;100243.98;133873;1301;22442;-76
2023/06/08 02:43:04;;;;;;;;;;;;;;;12.58;74.97;100240.48;133882;1297;22525;-75
2023/06/08 02:46:05;;;;;;;;;;;;;;;12.54;75.25;100236.24;133696;1301;23225;-76
2023/06/08 02:49:10;;;;;;;;;;;;;;;12.57;75.28;100238.46;133738;1300;23265;-76
2023/06/08 02:52:11;;;;;;;;;;;;;;;12.56;75.33;100238.23;133860;1299;22416;-76
2023/06/08 02:55:14;;;;;;;;;;;;;;;12.48;75.80;100235.35;133752;1299;22444;-78
2023/06/08 02:58:20;;;;;;;;;;;;;;;12.48;75.97;100233.63;133704;1300;22479;-76
2023/06/08 03:01:21;;;;;;;;;;;;;;;12.49;75.97;100243.25;133902;1300;22453;-78
2023/06/08 03:04:37;;;;;;;;;;;;;;;12.47;75.90;100244.08;133754;1300;22603;-76
2023/06/08 03:07:40;;;;;;;;;;;;;;;12.45;76.05;100246.38;133739;1301;22683;-76
2023/06/08 03:10:43;;;;;;;;;;;;;;;12.49;76.36;100252.30;133742;1301;23160;-76
2023/06/08 03:13:49;;;;;;;;;;;;;;;12.52;76.50;100252.98;133765;1301;22638;-76
2023/06/08 03:16:50;;;;;;;;;;;;;;;12.63;76.44;100252.81;133722;1299;22447;-76
2023/06/08 03:19:51;;;;;;;;;;;;;;;12.82;76.39;100252.42;133731;1301;22446;-75
2023/06/08 03:22:53;;;;;;;;;;;;;;;13.05;76.27;100255.64;133734;1299;22465;-76
2023/06/08 03:25:54;;;;;;;;;;;;;;;13.29;76.22;100254.57;133749;1300;22452;-76
2023/06/08 03:28:57;;;;;;;;;;;;;;;13.54;75.90;100259.67;133881;1299;23110;-76
2023/06/08 03:32:02;;;;;;;;;;;;;;;13.77;75.65;100260.83;133701;1300;22406;-76
2023/06/08 03:35:09;;;;;;;;;;;;;;;14.03;75.47;100257.30;133737;1301;22464;-78
2023/06/08 03:38:10;;;;;;;;;;;;;;;14.30;75.07;100257.73;133856;1299;22437;-76
2023/06/08 03:41:19;;;;;;;;;;;;;;;14.52;74.86;100259.06;133789;1300;22430;-76
2023/06/08 03:44:21;;;;;;;;;;;;;;;14.71;74.40;100264.48;133800;1300;22438;-76
2023/06/08 03:47:25;;;;;;;;;;;;;;;14.88;74.32;100259.69;133760;1301;22451;-76
2023/06/08 03:50:29;;;;;;;;;;;;;;;14.95;74.14;100260.20;133774;1300;145821;-76
2023/06/08 03:53:32;;;;;;;;;;;;;;;15.25;74.24;100260.95;133942;1299;23286;-76
2023/06/08 03:56:41;;;;;;;;;;;;;;;15.58;73.96;100259.09;133728;1301;23118;-77
2023/06/08 03:59:45;;;;;;;;;;;;;;;15.94;73.64;100256.30;133715;1302;22449;-76
2023/06/08 04:02:50;;;;;;;;;;;;;;;16.37;73.27;100255.86;133759;1299;22447;-76
2023/06/08 04:05:54;;;;;;;;;;;;;;;16.70;72.65;100258.48;133756;1299;23316;-76
2023/06/08 04:08:54;;;;;;;;;;;;;;;17.08;72.14;100259.73;133868;1301;22438;-76
2023/06/08 04:11:56;;;;;;;;;;;;;;;17.46;71.70;100256.70;133906;1306;24766;-76
2023/06/08 04:14:57;;;;;;;;;;;;;;;17.89;71.21;100261.00;133729;1305;22492;-76
2023/06/08 04:18:06;;;;;;;;;;;;;;;18.31;70.74;100260.57;133761;1300;22461;-77
2023/06/08 04:21:08;;;;;;;;;;;;;;;18.71;69.97;100261.14;133736;1300;22453;-77
2023/06/08 04:24:08;;;;;;;;;;;;;;;18.99;69.30;100267.88;133685;1299;22469;-77
2023/06/08 04:27:13;;;;;;;;;;;;;;;19.14;68.68;100266.52;133747;1300;22496;-76
2023/06/08 04:30:17;;;;;;;;;;;;;;;19.44;68.47;100267.05;133725;1303;22414;-77
2023/06/08 04:33:18;;;;;;;;;;;;;;;19.75;68.21;100267.21;133742;1300;23118;-76
2023/06/08 04:36:18;;;;;;;;;;;;;;;20.18;67.96;100266.85;133589;1303;22476;-76
2023/06/08 04:39:21;;;;;;;;;;;;;;;20.68;67.36;100261.11;133778;1302;22551;-77
2023/06/08 04:42:27;;;;;;;;;;;;;;;20.97;66.38;100260.95;133904;1300;22438;-76
2023/06/08 04:45:30;;;;;;;;;;;;;;;21.22;65.98;100260.19;133704;1301;22483;-76
2023/06/08 04:48:33;;;;;;;;;;;;;;;21.50;65.42;100263.69;133707;1300;23113;-76
2023/06/08 04:51:39;;;;;;;;;;;;;;;21.82;64.99;100265.82;133901;1299;22459;-77
2023/06/08 04:54:40;;;;;;;;;;;;;;;22.12;64.35;100269.53;133752;1299;23206;-78
2023/06/08 04:57:43;;;;;;;;;;;;;;;22.39;63.34;100267.42;133737;1301;23109;-76
2023/06/08 05:00:43;;;;;;;;;;;;;;;22.40;62.65;100266.80;133745;1301;22495;-77
2023/06/08 05:03:47;;;;;;;;;;;;;;;22.61;62.58;100266.02;133772;1299;23242;-76
2023/06/08 05:06:51;;;;;;;;;;;;;;;22.86;62.07;100266.88;133814;1299;23225;-76
2023/06/08 05:09:52;;;;;;;;;;;;;;;23.06;61.70;100266.61;133804;1290;23146;-78
2023/06/08 05:12:55;;;;;;;;;;;;;;;23.34;61.18;100268.83;133872;1299;22462;-77
2023/06/08 05:15:58;;;;;;;;;;;;;;;23.51;60.76;100270.45;133840;1299;22457;-76
2023/06/08 05:19:03;;;;;;;;;;;;;;;23.73;60.40;100274.66;133872;1299;22434;-77
2023/06/08 05:22:04;;;;;;;;;;;;;;;24.03;59.94;100277.39;133856;1300;22452;-76
2023/06/08 05:25:05;;;;;;;;;;;;;;;24.32;59.56;100277.59;133794;1300;22440;-77
2023/06/08 05:28:05;;;;;;;;;;;;;;;24.70;59.03;100272.33;133860;1300;22548;-77
2023/06/08 05:31:06;;;;;;;;;;;;;;;25.01;58.58;100275.29;133819;1300;22519;-76
2023/06/08 05:34:06;;;;;;;;;;;;;;;25.47;57.82;100269.02;133874;1299;23183;-76
2023/06/08 05:37:09;;;;;;;;;;;;;;;25.73;56.67;100267.92;133827;1299;22488;-78
2023/06/08 05:40:13;;;;;;;;;;;;;;;25.80;55.01;100269.10;133821;1299;22491;-77
2023/06/08 05:43:16;;;;;;;;;;;;;;;25.78;55.01;100264.91;133812;1300;23281;-77
2023/06/08 05:46:17;;;;;;;;;;;;;;;25.73;54.68;100263.05;133800;1300;22477;-77
2023/06/08 05:49:18;;;;;;;;;;;;;;;25.88;53.95;100264.59;133820;1300;22567;-77
2023/06/08 05:52:21;;;;;;;;;;;;;;;26.06;53.60;100264.25;133799;1300;23009;-76
2023/06/08 05:55:21;;;;;;;;;;;;;;;26.28;52.76;100262.92;133767;1299;23384;-77
2023/06/08 05:58:23;;;;;;;;;;;;;;;26.35;52.29;100260.81;133871;1299;22436;-81
2023/06/08 06:01:24;;;;;;;;;;;;;;;26.50;51.84;100264.73;133870;1292;22428;-82
2023/06/08 06:04:24;;;;;;;;;;;;;;;26.74;51.24;100269.03;133800;1299;22456;-84
2023/06/08 06:07:25;;;;;;;;;;;;;;;26.66;50.37;100268.64;133844;1299;22443;-84
2023/06/08 06:10:29;;;;;;;;;;;;;;;26.39;50.41;100272.63;133890;1299;22487;-82
2023/06/08 06:13:34;;;;;;;;;;;;;;;26.56;50.52;100270.79;133833;1299;23415;-85
2023/06/08 06:16:34;;;;;;;;;;;;;;;26.69;49.76;100270.48;133882;1299;22585;-85
2023/06/08 06:19:39;;;;;;;;;;;;;;;26.79;49.36;100277.58;133809;1299;22460;-81
2023/06/08 06:22:42;;;;;;;;;;;;;;;27.12;49.13;100272.33;133844;1284;22510;-83
2023/06/08 06:25:43;;;;;;;;;;;;;;;27.38;48.17;100271.94;133694;1301;22480;-82
2023/06/08 06:28:44;;;;;;;;;;;;;;;27.46;48.05;100273.45;133664;1300;23182;-82
2023/06/08 06:31:44;;;;;;;;;;;;;;;27.72;47.26;100272.41;133916;1299;22481;-82
2023/06/08 06:34:48;;;;;;;;;;;;;;;27.84;47.25;100275.34;133786;1300;22473;-82
2023/06/08 06:37:50;;;;;;;;;;;;;;;28.09;47.29;100279.50;133808;1299;23267;-81
2023/06/08 06:40:53;;;;;;;;;;;;;;;28.23;46.51;100280.05;133862;1300;22470;-81
2023/06/08 06:44:00;;;;;;;;;;;;;;;28.18;45.97;100281.34;133795;1302;22489;-83
2023/06/08 06:47:09;;;;;;;;;;;;;;;28.04;46.05;100276.65;133908;1300;22446;-81
2023/06/08 06:50:11;;;;;;;;;;;;;;;28.38;46.39;100278.83;133900;1299;23461;-80
2023/06/08 06:53:15;;;;;;;;;;;;;;;28.45;45.11;100279.73;133914;1306;23165;-77
2023/06/08 06:56:15;;;;;;;;;;;;;;;28.08;44.99;100277.60;133892;1292;22466;-77
2023/06/08 06:59:20;;;;;;;;;;;;;;;27.78;45.51;100276.77;133885;1300;22459;-76
2023/06/08 07:02:23;;;;;;;;;;;;;;;27.97;45.81;100273.39;133883;1300;22586;-76
2023/06/08 07:05:23;;;;;;;;;;;;;;;27.99;45.39;100271.64;133863;1300;23369;-78
2023/06/08 07:08:27;;;;;;;;;;;;;;;28.13;45.17;100273.50;133828;1300;22498;-75
2023/06/08 07:11:28;;;;;;;;;;;;;;;28.26;44.45;100272.02;133895;1300;22459;-75
2023/06/08 07:14:33;;;;;;;;;;;;;;;28.30;44.64;100279.24;133851;1300;22515;-78
2023/06/08 07:17:34;;;;;;;;;;;;;;;28.66;44.72;100278.68;133891;1301;22480;-76
2023/06/08 07:20:35;;;;;;;;;;;;;;;28.93;43.64;100278.81;133895;1300;23133;-77
2023/06/08 07:23:35;;;;;;;;;;;;;;;29.12;43.64;100275.19;133909;1300;22495;-80
2023/06/08 07:26:36;;;;;;;;;;;;;;;29.50;43.20;100276.16;133879;1300;22486;-76
2023/06/08 07:29:36;;;;;;;;;;;;;;;29.71;42.74;100272.33;133699;1304;22472;-78
2023/06/08 07:32:36;;;;;;;;;;;;;;;29.62;42.65;100273.85;133877;1306;22429;-80
2023/06/08 07:35:37;;;;;;;;;;;;;;;29.76;42.50;100273.28;133807;1300;22510;-77
2023/06/08 07:38:40;;;;;;;;;;;;;;;29.95;42.14;100265.67;133862;1299;23072;-77
2023/06/08 07:41:42;;;;;;;;;;;;;;;30.02;41.44;100260.66;133824;1301;23372;-77
2023/06/08 07:44:42;;;;;;;;;;;;;;;30.35;41.44;100262.59;133875;1300;22463;-77
2023/06/08 07:47:43;;;;;;;;;;;;;;;30.42;40.83;100263.05;133836;1303;22461;-78
2023/06/08 07:50:45;;;;;;;;;;;;;;;30.44;40.55;100263.24;133845;1300;22433;-78
2023/06/08 07:53:45;;;;;;;;;;;;;;;30.28;39.80;100262.53;133909;1299;22454;-77
2023/06/08 07:56:46;;;;;;;;;;;;;;;29.87;39.68;100259.58;133918;1300;22461;-78
2023/06/08 07:59:47;;;;;;;;;;;;;;;29.47;39.59;100259.02;133874;1300;22468;-80
2023/06/08 08:02:47;;;;;;;;;;;;;;;28.97;39.69;100261.09;133866;1300;22453;-77
2023/06/08 08:05:49;;;;;;;;;;;;;;;28.51;39.67;100259.06;133861;1300;22476;-77
2023/06/08 08:08:49;;;;;;;;;;;;;;;28.28;40.12;100259.23;133922;1301;23179;-78
2023/06/08 08:11:50;;;;;;;;;;;;;;;28.53;40.38;100259.55;133934;1300;22459;-75
2023/06/08 08:14:50;;;;;;;;;;;;;;;28.56;39.89;100264.35;133862;1300;22454;-76
2023/06/08 08:17:57;;;;;;;;;;;;;;;28.53;40.39;100262.45;133828;1300;23157;-74
2023/06/08 08:21:08;;;;;;;;;;;;;;;28.74;40.37;100261.33;133745;1300;22444;-77
2023/06/08 08:24:24;;;;;;;;;;;;;;;28.71;39.71;100258.27;133818;1300;22552;-75
2023/06/08 08:27:26;;;;;;;;;;;;;;;28.75;40.10;100260.48;133854;1300;22452;-81
2023/06/08 08:30:36;;;;;;;;;;;;;;;28.96;39.20;100257.04;133803;1301;22455;-77
2023/06/08 08:33:40;;;;;;;;;;;;;;;28.78;39.12;100256.59;133926;1300;22431;-76
2023/06/08 08:36:40;;;;;;;;;;;;;;;28.51;38.95;100255.53;133928;1301;23247;-79
2023/06/08 08:39:41;;;;;;;;;;;;;;;28.38;39.55;100256.95;133776;1301;22455;-75
2023/06/08 08:42:46;;;;;;;;;;;;;;;28.40;39.27;100259.89;133833;1299;22478;-75
2023/06/08 08:45:47;;;;;;;;;;;;;;;28.23;39.33;100254.63;133819;1300;22451;-74
2023/06/08 08:48:50;;;;;;;;;;;;;;;28.22;39.65;100250.54;133893;1300;22447;-76
2023/06/08 08:52:08;;;;;;;;;;;;;;;28.19;39.63;100255.63;133820;1299;22489;-75
2023/06/08 08:55:10;;;;;;;;;;;;;;;28.16;39.05;100256.30;133762;1299;22484;-75
2023/06/08 08:58:34;;;;;;;;;;;;;;;28.07;39.25;100251.36;133814;1301;22482;-76
2023/06/08 09:01:35;;;;;;;;;;;;;;;28.17;39.64;100250.41;133892;1299;22464;-77
2023/06/08 09:04:35;;;;;;;;;;;;;;;28.30;38.89;100253.61;133942;1300;22488;-73
2023/06/08 09:07:37;;;;;;;;;;;;;;;28.35;38.00;100247.63;133921;1300;22448;-71
2023/06/08 09:10:37;;;;;;;;;;;;;;;28.41;38.26;100249.58;133857;1300;23174;-73
2023/06/08 09:13:38;;;;;;;;;;;;;;;28.54;38.19;100243.39;133845;1299;22429;-82
2023/06/08 09:16:43;;;;;;;;;;;;;;;28.51;37.19;100239.31;133918;1300;23181;-78
2023/06/08 09:20:01;;;;;;;;;;;;;;;28.52;37.57;100235.65;133818;1300;22487;-74
2023/06/08 09:23:24;;;;;;;;;;;;;;;28.64;37.12;100239.66;133849;1299;22455;-74
2023/06/08 09:26:32;;;;;;;;;;;;;;;28.54;36.90;100232.69;133915;1301;22728;-78
2023/06/08 09:29:37;;;;;;;;;;;;;;;28.80;36.25;100229.98;133888;1300;22449;-78
2023/06/08 09:32:38;;;;;;;;;;;;;;;28.70;36.54;100226.40;133831;1301;22419;-81
2023/06/08 09:35:41;;;;;;;;;;;;;;;28.66;36.91;100231.73;133795;1301;22484;-83
2023/06/08 09:38:42;;;;;;;;;;;;;;;28.77;37.11;100228.48;133838;1300;23118;-84
2023/06/08 09:41:55;;;;;;;;;;;;;;;28.95;36.90;100223.11;133884;1300;22526;-83
2023/06/08 09:45:09;;;;;;;;;;;;;;;29.18;36.77;100220.13;133854;1291;22460;-76
2023/06/08 09:48:10;;;;;;;;;;;;;;;29.14;36.27;100214.33;133821;1300;23275;-75
2023/06/08 09:51:11;;;;;;;;;;;;;;;29.07;36.45;100213.89;133849;1300;22398;-75
2023/06/08 09:54:13;;;;;;;;;;;;;;;29.14;36.49;100212.68;133910;1300;22455;-73
2023/06/08 09:57:18;;;;;;;;;;;;;;;29.17;36.90;100209.48;133910;1301;22480;-78
2023/06/08 10:00:22;;;;;;;;;;;;;;;29.29;37.10;100211.05;133794;1300;23298;-75
2023/06/08 10:03:28;;;;;;;;;;;;;;;29.30;36.51;100206.45;133842;1299;22437;-78
2023/06/08 10:06:29;;;;;;;;;;;;;;;29.14;36.35;100204.11;133843;1300;22454;-76
2023/06/08 10:09:31;;;;;;;;;;;;;;;28.95;36.23;100202.07;133744;1302;23198;-77
2023/06/08 10:12:32;;;;;;;;;;;;;;;28.95;36.30;100202.50;133918;1299;22454;-77
2023/06/08 10:15:33;;;;;;;;;;;;;;;29.07;36.07;100194.86;133872;1301;23184;-76
2023/06/08 10:18:35;;;;;;;;;;;;;;;29.22;36.12;100192.77;133914;1300;22498;-75
2023/06/08 10:21:36;;;;;;;;;;;;;;;29.18;35.85;100192.91;133871;1300;22423;-78
2023/06/08 10:24:38;;;;;;;;;;;;;;;29.15;35.82;100183.83;133867;1300;22446;-74
2023/06/08 10:27:46;;;;;;;;;;;;;;;29.18;35.72;100182.25;133875;1300;22450;-77
2023/06/08 10:30:46;;;;;;;;;;;;;;;29.11;34.83;100178.17;133806;1300;22641;-76
2023/06/08 10:33:47;;;;;;;;;;;;;;;29.02;35.12;100176.23;133796;1300;22448;-74
2023/06/08 10:36:47;;;;;;;;;;;;;;;28.77;34.77;100171.95;133811;1299;22460;-77
2023/06/08 10:39:48;;;;;;;;;;;;;;;28.57;34.97;100167.55;133874;1300;22512;-78
2023/06/08 10:42:55;;;;;;;;;;;;;;;28.43;34.56;100169.50;133900;1304;23111;-76
2023/06/08 10:45:57;;;;;;;;;;;;;;;28.29;35.20;100165.71;133699;1300;23600;-73
2023/06/08 10:49:00;;;;;;;;;;;;;;;28.34;35.20;100162.72;133840;1300;22447;-75
2023/06/08 10:52:02;;;;;;;;;;;;;;;28.40;35.57;100154.29;133836;1300;22432;-75
2023/06/08 10:55:13;;;;;;;;;;;;;;;28.62;35.30;100152.05;133792;1300;22566;-78
2023/06/08 10:58:18;;;;;;;;;;;;;;;28.48;34.77;100157.23;133807;1300;22465;-79
2023/06/08 11:01:20;;;;;;;;;;;;;;;28.35;34.85;100153.28;133876;1300;22516;-75
2023/06/08 11:04:20;;;;;;;;;;;;;;;28.37;34.84;100146.39;133777;1301;22460;-75
2023/06/08 11:07:23;;;;;;;;;;;;;;;28.56;35.10;100141.73;133798;1301;22460;-76
2023/06/08 11:10:24;;;;;;;;;;;;;;;28.67;34.81;100141.59;133811;1300;22462;-76
2023/06/08 11:13:24;;;;;;;;;;;;;;;28.67;35.03;100139.63;133836;1301;23182;-76
2023/06/08 11:16:24;;;;;;;;;;;;;;;28.75;34.50;100142.02;133774;1300;22552;-75
2023/06/08 11:19:30;;;;;;;;;;;;;;;28.71;33.98;100134.90;133770;1300;22522;-78
2023/06/08 11:22:31;;;;;;;;;;;;;;;28.61;33.85;100131.33;133830;1300;22444;-78
2023/06/08 11:25:32;;;;;;;;;;;;;;;28.53;34.31;100128.66;133779;1300;22457;-78
2023/06/08 11:28:32;;;;;;;;;;;;;;;28.65;33.72;100127.91;133794;1300;23224;-79
2023/06/08 11:31:39;;;;;;;;;;;;;;;28.69;33.66;100126.02;133805;1300;22468;-78
2023/06/08 11:34:41;;;;;;;;;;;;;;;28.67;33.97;100120.08;133797;1299;22496;-77
2023/06/08 11:37:43;;;;;;;;;;;;;;;28.78;33.77;100119.92;133791;1299;22442;-76
2023/06/08 11:40:44;;;;;;;;;;;;;;;28.77;32.65;100115.73;133846;1299;22474;-75
2023/06/08 11:43:47;;;;;;;;;;;;;;;28.72;33.11;100110.11;133891;1300;22432;-76
2023/06/08 11:46:48;;;;;;;;;;;;;;;28.94;33.44;100102.23;133859;1300;22514;-75
2023/06/08 11:49:52;;;;;;;;;;;;;;;29.04;33.30;100098.10;133821;1300;22462;-80
2023/06/08 11:52:52;;;;;;;;;;;;;;;28.72;32.63;100096.87;133839;1300;22511;-82
2023/06/08 11:55:54;;;;;;;;;;;;;;;28.11;33.29;100094.52;133851;1300;22569;-81
2023/06/08 11:58:55;;;;;;;;;;;;;;;27.90;33.74;100100.08;133846;1301;22482;-75
2023/06/08 12:01:55;;;;;;;;;;;;;;;27.83;34.06;100096.02;133843;1301;22500;-77
2023/06/08 12:04:58;;;;;;;;;;;;;;;27.62;34.56;100095.02;133789;1300;22539;-74
2023/06/08 12:08:01;;;;;;;;;;;;;;;27.50;34.53;100091.27;133758;1294;22583;-74
2023/06/08 12:11:09;;;;;;;;;;;;;;;27.59;34.58;100082.94;133770;1301;23165;-73
2023/06/08 12:14:13;;;;;;;;;;;;;;;27.76;34.49;100079.46;133809;1299;22955;-74
2023/06/08 12:17:17;;;;;;;;;;;;;;;27.84;34.76;100073.93;133792;1301;22472;-74
2023/06/08 12:20:18;;;;;;;;;;;;;;;27.89;34.09;100076.03;133832;1300;22707;-74
2023/06/08 12:23:22;;;;;;;;;;;;;;;27.99;34.04;100064.13;133848;1300;22444;-74
2023/06/08 12:26:26;;;;;;;;;;;;;;;27.98;33.56;100064.24;133862;1300;22445;-74
2023/06/08 12:29:32;;;;;;;;;;;;;;;27.86;34.00;100064.93;133863;1299;23609;-74
2023/06/08 12:32:33;;;;;;;;;;;;;;;27.81;34.07;100056.19;133841;1300;22470;-74
2023/06/08 12:35:36;;;;;;;;;;;;;;;27.91;33.91;100049.90;133766;1301;23221;-74
2023/06/08 12:38:36;;;;;;;;;;;;;;;27.99;33.02;100061.63;133837;1300;22460;-75
2023/06/08 12:41:39;;;;;;;;;;;;;;;27.76;32.82;100060.71;133739;1301;22502;-73
2023/06/08 12:44:43;;;;;;;;;;;;;;;27.69;33.10;100051.39;133892;1300;22460;-74
2023/06/08 12:47:44;;;;;;;;;;;;;;;27.71;32.52;100046.95;133840;1300;22455;-74
2023/06/08 12:50:51;;;;;;;;;;;;;;;27.72;33.00;100050.75;133832;1301;22482;-75
2023/06/08 12:53:54;;;;;;;;;;;;;;;27.53;33.01;100055.29;133840;1301;22448;-74
2023/06/08 12:56:54;;;;;;;;;;;;;;;27.25;32.61;100050.52;133783;1301;22522;-73
2023/06/08 12:59:55;;;;;;;;;;;;;;;27.23;33.16;100046.65;133860;1301;22632;-74
2023/06/08 13:02:57;;;;;;;;;;;;;;;27.49;34.03;100050.67;133849;1300;22483;-75
2023/06/08 13:05:57;;;;;;;;;;;;;;;27.63;33.15;100046.55;133804;1300;23195;-75
2023/06/08 13:09:03;;;;;;;;;;;;;;;27.42;32.83;100050.04;133768;1300;23278;-74
2023/06/08 13:12:03;;;;;;;;;;;;;;;27.12;33.13;100053.86;133785;1300;22446;-76
2023/06/08 13:15:04;;;;;;;;;;;;;;;26.84;33.42;100050.41;133839;1299;22481;-74
2023/06/08 13:18:06;;;;;;;;;;;;;;;26.66;33.67;100050.48;133806;1300;22452;-75
2023/06/08 13:21:08;;;;;;;;;;;;;;;26.78;33.97;100050.42;133872;1299;22535;-75
2023/06/08 13:24:08;;;;;;;;;;;;;;;26.84;33.94;100048.05;133913;1302;22437;-74
2023/06/08 13:27:09;;;;;;;;;;;;;;;26.82;33.40;100050.35;133788;1306;22466;-74
2023/06/08 13:30:10;;;;;;;;;;;;;;;26.86;33.76;100043.83;133815;1300;22464;-73
2023/06/08 13:33:10;;;;;;;;;;;;;;;26.94;33.17;100040.96;133850;1300;22460;-73
2023/06/08 13:36:11;;;;;;;;;;;;;;;27.02;33.17;100034.45;133775;1301;22498;-73
2023/06/08 13:39:11;;;;;;;;;;;;;;;27.15;33.46;100027.45;133840;1301;22518;-74
2023/06/08 13:42:12;;;;;;;;;;;;;;;27.29;32.37;100024.02;133807;1300;25810;-74
2023/06/08 13:45:12;;;;;;;;;;;;;;;27.29;31.05;100027.41;133777;1307;22513;-74
2023/06/08 13:48:13;;;;;;;;;;;;;;;27.29;31.63;100026.05;133818;1301;23921;-72
2023/06/08 13:51:14;;;;;;;;;;;;;;;27.36;31.31;100022.83;133837;1301;22597;-73
2023/06/08 13:54:15;;;;;;;;;;;;;;;27.43;31.72;100019.98;133829;1301;22470;-75
2023/06/08 13:57:16;;;;;;;;;;;;;;;27.44;31.28;100015.11;133823;1304;22523;-77
2023/06/08 14:00:16;;;;;;;;;;;;;;;27.43;31.20;100016.21;133846;1300;22434;-75
2023/06/08 14:03:17;;;;;;;;;;;;;;;27.40;31.41;100008.93;133841;1307;22463;-76
2023/06/08 14:06:20;;;;;;;;;;;;;;;27.35;31.23;100006.55;133841;1307;23242;-75
2023/06/08 14:09:20;;;;;;;;;;;;;;;27.35;31.11;100005.70;133844;1306;23087;-73
2023/06/08 14:12:21;;;;;;;;;;;;;;;27.34;31.46;99997.02;133822;1304;22496;-73
2023/06/08 14:15:21;;;;;;;;;;;;;;;27.38;31.72;99997.13;133767;1305;22530;-74
2023/06/08 14:18:22;;;;;;;;;;;;;;;27.51;32.26;99990.77;133793;1300;22445;-73
2023/06/08 14:21:22;;;;;;;;;;;;;;;27.54;32.30;99992.34;133789;1300;23289;-74
2023/06/08 14:24:23;;;;;;;;;;;;;;;27.43;31.71;99993.27;133808;1301;23217;-72
2023/06/08 14:27:26;;;;;;;;;;;;;;;27.08;31.49;100004.16;133768;1300;22455;-72
2023/06/08 14:30:26;;;;;;;;;;;;;;;26.60;31.55;100001.38;133838;1300;22576;-73
2023/06/08 14:33:26;;;;;;;;;;;;;;;26.28;32.15;99998.84;133744;1299;22526;-73
2023/06/08 14:36:27;;;;;;;;;;;;;;;26.12;32.69;99996.25;133756;1300;22480;-76
2023/06/08 14:39:27;;;;;;;;;;;;;;;26.13;33.02;99993.58;133888;1299;24470;-74
2023/06/08 14:42:29;;;;;;;;;;;;;;;26.29;33.24;99990.30;134000;1300;22462;-74
2023/06/08 14:45:35;;;;;;;;;;;;;;;26.47;32.84;99987.13;133889;1301;22487;-75
2023/06/08 14:48:42;;;;;;;;;;;;;;;26.65;32.64;99987.53;134004;1300;22606;-73
2023/06/08 14:51:49;;;;;;;;;;;;;;;26.81;32.99;99984.83;134019;1300;23234;-75
2023/06/08 14:54:55;;;;;;;;;;;;;;;26.98;33.19;99973.17;133739;1301;22476;-71
2023/06/08 14:57:56;;;;;;;;;;;;;;;27.17;32.68;99973.14;133793;1300;22450;-73
2023/06/08 15:00:56;;;;;;;;;;;;;;;27.25;32.49;99966.41;133838;1307;22461;-71
2023/06/08 15:03:57;;;;;;;;;;;;;;;27.28;32.50;99974.23;133892;1307;23253;-72
2023/06/08 15:06:57;;;;;;;;;;;;;;;27.31;32.54;99967.08;133872;1300;22463;-72
2023/06/08 15:09:58;;;;;;;;;;;;;;;27.29;32.80;99971.62;133817;1299;25324;-74
2023/06/08 15:13:01;;;;;;;;;;;;;;;27.20;32.80;99970.89;133838;1301;23649;-71
2023/06/08 15:16:02;;;;;;;;;;;;;;;26.97;32.43;99971.36;133702;1300;22505;-71
2023/06/08 15:19:05;;;;;;;;;;;;;;;26.67;32.52;99966.58;133774;1301;22478;-72
2023/06/08 15:22:06;;;;;;;;;;;;;;;26.39;32.62;99963.25;133816;1301;22540;-73
2023/06/08 15:25:07;;;;;;;;;;;;;;;26.23;32.94;99957.24;133797;1301;22570;-72
2023/06/08 15:28:08;;;;;;;;;;;;;;;26.27;33.34;99963.77;133810;1300;22449;-73